Time,TemperatureF,DewpointF,PressureIn,WindDirection,WindDirectionDegrees,WindSpeedMPH,WindSpeedGustMPH,Humidity,HourlyPrecipIn,Conditions,Clouds,dailyrainin,SoftwareType,DateUTC
2013-03-27 00:07:00,37.9,28.0,30.37,WNW,291,0.0,-999.0,68,-99.99,,,0.00,weatherlink.com 1.10,2013-03-27 05:07:00,
2013-03-27 00:22:00,37.2,28.0,30.38,WNW,291,0.0,-999.0,69,-99.99,,,0.00,weatherlink.com 1.10,2013-03-27 05:22:00,
2013-03-27 00:37:00,36.6,28.0,30.38,WNW,291,0.0,-999.0,71,-99.99,,,0.00,weatherlink.com 1.10,2013-03-27 05:37:00,
2013-03-27 01:07:00,35.5,28.0,30.38,WNW,291,0.0,-999.0,73,-99.99,,,0.00,weatherlink.com 1.10,2013-03-27 06:07:00,
2013-03-27 01:22:00,34.9,28.0,30.38,WNW,291,0.0,-999.0,75,-99.99,,,0.00,weatherlink.com 1.10,2013-03-27 06:22:00,
2013-03-27 01:37:00,34.4,28.0,30.38,WNW,291,0.0,-999.0,76,-99.99,,,0.00,weatherlink.com 1.10,2013-03-27 06:37:00,
2013-03-27 01:52:00,34.0,28.0,30.38,WNW,291,0.0,-999.0,77,-99.99,,,0.00,weatherlink.com 1.10,2013-03-27 06:52:00,
2013-03-27 02:07:00,33.5,28.0,30.37,WNW,291,0.0,-999.0,79,-99.99,,,0.00,weatherlink.com 1.10,2013-03-27 07:07:00,
2013-03-27 02:22:00,33.2,28.0,30.38,WNW,291,0.0,-999.0,80,-99.99,,,0.00,weatherlink.com 1.10,2013-03-27 07:22:00,
2013-03-27 02:37:00,32.8,28.0,30.37,WNW,291,0.0,-999.0,81,-99.99,,,0.00,weatherlink.com 1.10,2013-03-27 07:37:00,
2013-03-27 02:52:00,32.5,28.0,30.37,WNW,291,0.0,-999.0,82,-99.99,,,0.00,weatherlink.com 1.10,2013-03-27 07:52:00,
2013-03-27 03:07:00,32.4,28.0,30.37,WNW,291,0.0,-999.0,83,-99.99,,,0.00,weatherlink.com 1.10,2013-03-27 08:07:00,
2013-03-27 03:22:00,32.2,28.0,30.36,WNW,291,0.0,-999.0,83,-99.99,,,0.00,weatherlink.com 1.10,2013-03-27 08:22:00,
2013-03-27 03:37:00,31.9,28.0,30.36,WNW,291,0.0,-999.0,84,-99.99,,,0.00,weatherlink.com 1.10,2013-03-27 08:37:00,
2013-03-27 03:52:00,32.1,28.0,30.37,WNW,291,0.0,-999.0,85,-99.99,,,0.00,weatherlink.com 1.10,2013-03-27 08:52:00,
2013-03-27 04:07:00,32.1,28.0,30.37,WNW,291,0.0,-999.0,86,-99.99,,,0.00,weatherlink.com 1.10,2013-03-27 09:07:00,
2013-03-27 04:22:00,32.1,28.0,30.36,WNW,291,0.0,-999.0,86,-99.99,,,0.00,weatherlink.com 1.10,2013-03-27 09:22:00,
2013-03-27 04:37:00,31.9,28.0,30.36,WNW,291,0.0,-999.0,86,-99.99,,,0.00,weatherlink.com 1.10,2013-03-27 09:37:00,
2013-03-27 04:52:00,31.6,28.0,30.36,WNW,291,0.0,-999.0,86,-99.99,,,0.00,weatherlink.com 1.10,2013-03-27 09:52:00,
2013-03-27 05:07:00,31.3,28.0,30.36,WNW,291,0.0,-999.0,86,-99.99,,,0.00,weatherlink.com 1.10,2013-03-27 10:07:00,
2013-03-27 05:22:00,31.0,27.0,30.36,WNW,291,0.0,-999.0,86,-99.99,,,0.00,weatherlink.com 1.10,2013-03-27 10:22:00,
2013-03-27 05:37:00,30.6,27.0,30.36,WNW,291,0.0,-999.0,86,-99.99,,,0.00,weatherlink.com 1.10,2013-03-27 10:37:00,
2013-03-27 05:52:00,30.3,27.0,30.37,WNW,291,0.0,-999.0,86,-99.99,,,0.00,weatherlink.com 1.10,2013-03-27 10:52:00,
2013-03-27 06:07:00,30.1,27.0,30.38,WNW,291,0.0,-999.0,87,-99.99,,,0.00,weatherlink.com 1.10,2013-03-27 11:07:00,
2013-03-27 06:22:00,30.1,27.0,30.39,WNW,291,0.0,-999.0,87,-99.99,,,0.00,weatherlink.com 1.10,2013-03-27 11:22:00,
2013-03-27 06:37:00,30.1,27.0,30.39,WNW,291,0.0,-999.0,87,-99.99,,,0.00,weatherlink.com 1.10,2013-03-27 11:37:00,
2013-03-27 06:52:00,30.3,27.0,30.39,WNW,291,0.0,-999.0,88,-99.99,,,0.00,weatherlink.com 1.10,2013-03-27 11:52:00,
2013-03-27 07:07:00,30.3,27.0,30.39,WNW,291,0.0,-999.0,88,-99.99,,,0.00,weatherlink.com 1.10,2013-03-27 12:07:00,
2013-03-27 07:22:00,30.1,27.0,30.40,WNW,291,0.0,-999.0,89,-99.99,,,0.00,weatherlink.com 1.10,2013-03-27 12:22:00,
2013-03-27 07:37:00,30.0,27.0,30.40,WNW,291,0.0,-999.0,89,-99.99,,,0.00,weatherlink.com 1.10,2013-03-27 12:37:00,
2013-03-27 07:52:00,29.8,27.0,30.41,WNW,291,0.0,-999.0,89,-99.99,,,0.00,weatherlink.com 1.10,2013-03-27 12:52:00,
2013-03-27 08:07:00,31.2,29.0,30.41,WNW,291,1.0,-999.0,90,-99.99,,,0.00,weatherlink.com 1.10,2013-03-27 13:07:00,
2013-03-27 08:22:00,34.9,33.0,30.42,South,184,2.0,-999.0,91,-99.99,,,0.00,weatherlink.com 1.10,2013-03-27 13:22:00,
2013-03-27 08:37:00,37.5,35.0,30.42,SSW,203,3.0,-999.0,89,-99.99,,,0.00,weatherlink.com 1.10,2013-03-27 13:37:00,
2013-03-27 08:52:00,39.9,35.0,30.43,SSE,167,2.0,-999.0,82,-99.99,,,0.00,weatherlink.com 1.10,2013-03-27 13:52:00,
2013-03-27 09:07:00,42.1,35.0,30.43,SSE,164,5.0,-999.0,76,-99.99,,,0.00,weatherlink.com 1.10,2013-03-27 14:07:00,
2013-03-27 09:22:00,44.6,34.0,30.43,South,181,2.0,-999.0,66,-99.99,,,0.00,weatherlink.com 1.10,2013-03-27 14:22:00,
2013-03-27 09:37:00,47.1,33.0,30.43,ENE,72,0.0,-999.0,58,-99.99,,,0.00,weatherlink.com 1.10,2013-03-27 14:37:00,
2013-03-27 09:52:00,48.6,32.0,30.43,SSW,196,5.0,-999.0,54,-99.99,,,0.00,weatherlink.com 1.10,2013-03-27 14:52:00,
2013-03-27 10:07:00,49.5,32.0,30.43,SE,131,1.0,-999.0,52,-99.99,,,0.00,weatherlink.com 1.10,2013-03-27 15:07:00,
2013-03-27 10:22:00,50.7,31.0,30.43,ESE,121,6.0,-999.0,48,-99.99,,,0.00,weatherlink.com 1.10,2013-03-27 15:22:00,
2013-03-27 10:37:00,52.2,31.0,30.42,South,175,4.0,-999.0,45,-99.99,,,0.00,weatherlink.com 1.10,2013-03-27 15:37:00,
2013-03-27 10:52:00,52.6,29.0,30.42,NE,40,4.0,-999.0,41,-99.99,,,0.00,weatherlink.com 1.10,2013-03-27 15:52:00,
2013-03-27 11:07:00,53.6,30.0,30.42,South,172,1.0,-999.0,41,-99.99,,,0.00,weatherlink.com 1.10,2013-03-27 16:07:00,
2013-03-27 11:37:00,55.3,27.0,30.41,SSE,148,1.0,-999.0,34,-99.99,,,0.00,weatherlink.com 1.10,2013-03-27 16:37:00,
2013-03-27 11:52:00,55.9,27.0,30.41,SSE,162,1.0,-999.0,33,-99.99,,,0.00,weatherlink.com 1.10,2013-03-27 16:52:00,
2013-03-27 12:07:00,55.9,28.0,30.40,South,174,1.0,-999.0,34,-99.99,,,0.00,weatherlink.com 1.10,2013-03-27 17:07:00,
2013-03-27 12:22:00,57.0,26.0,30.39,WSW,237,2.0,-999.0,31,-99.99,,,0.00,weatherlink.com 1.10,2013-03-27 17:22:00,
2013-03-27 12:37:00,58.0,28.0,30.39,WSW,239,5.0,-999.0,32,-99.99,,,0.00,weatherlink.com 1.10,2013-03-27 17:37:00,
2013-03-27 12:52:00,58.3,28.0,30.38,South,185,5.0,-999.0,32,-99.99,,,0.00,weatherlink.com 1.10,2013-03-27 17:52:00,
2013-03-27 13:07:00,58.3,29.0,30.37,East,86,6.0,-999.0,33,-99.99,,,0.00,weatherlink.com 1.10,2013-03-27 18:07:00,
2013-03-27 13:22:00,58.9,30.0,30.36,East,96,3.0,-999.0,33,-99.99,,,0.00,weatherlink.com 1.10,2013-03-27 18:22:00,
2013-03-27 13:37:00,59.5,31.0,30.35,South,169,1.0,-999.0,34,-99.99,,,0.00,weatherlink.com 1.10,2013-03-27 18:37:00,
2013-03-27 13:53:00,60.5,30.0,30.34,SSW,193,2.0,-999.0,31,-99.99,,,0.00,weatherlink.com 1.10,2013-03-27 18:53:00,
2013-03-27 14:07:00,61.5,30.0,30.33,SW,233,3.0,-999.0,31,-99.99,,,0.00,weatherlink.com 1.10,2013-03-27 19:07:00,
2013-03-27 14:23:00,62.3,32.0,30.31,NE,52,0.0,-999.0,32,-99.99,,,0.00,weatherlink.com 1.10,2013-03-27 19:23:00,
2013-03-27 14:38:00,62.7,31.0,30.30,SSE,167,6.0,-999.0,30,-99.99,,,0.00,weatherlink.com 1.10,2013-03-27 19:38:00,
2013-03-27 14:53:00,63.4,32.0,30.30,South,188,2.0,-999.0,31,-99.99,,,0.00,weatherlink.com 1.10,2013-03-27 19:53:00,
2013-03-27 15:08:00,63.5,32.0,30.29,SSE,155,5.0,-999.0,31,-99.99,,,0.00,weatherlink.com 1.10,2013-03-27 20:08:00,
2013-03-27 15:23:00,63.9,33.0,30.28,SSE,152,4.0,-999.0,31,-99.99,,,0.00,weatherlink.com 1.10,2013-03-27 20:23:00,
2013-03-27 15:38:00,64.2,32.0,30.27,SE,144,1.0,-999.0,30,-99.99,,,0.00,weatherlink.com 1.10,2013-03-27 20:38:00,
2013-03-27 15:53:00,64.7,32.0,30.26,East,85,7.0,-999.0,29,-99.99,,,0.00,weatherlink.com 1.10,2013-03-27 20:53:00,
2013-03-27 16:08:00,64.8,33.0,30.25,ENE,65,2.0,-999.0,30,-99.99,,,0.00,weatherlink.com 1.10,2013-03-27 21:08:00,
2013-03-27 16:22:00,65.2,31.0,30.25,East,86,2.0,-999.0,28,-99.99,,,0.00,weatherlink.com 1.10,2013-03-27 21:22:00,
2013-03-27 16:38:00,66.0,33.0,30.24,NNE,25,5.0,-999.0,29,-99.99,,,0.00,weatherlink.com 1.10,2013-03-27 21:38:00,
2013-03-27 16:53:00,65.2,33.0,30.24,NNE,32,3.0,-999.0,30,-99.99,,,0.00,weatherlink.com 1.10,2013-03-27 21:53:00,
2013-03-27 17:08:00,65.3,32.0,30.23,NE,42,0.0,-999.0,29,-99.99,,,0.00,weatherlink.com 1.10,2013-03-27 22:08:00,
2013-03-27 17:23:00,65.5,32.0,30.23,East,99,5.0,-999.0,29,-99.99,,,0.00,weatherlink.com 1.10,2013-03-27 22:23:00,
2013-03-27 17:38:00,65.6,32.0,30.23,SE,140,1.0,-999.0,29,-99.99,,,0.00,weatherlink.com 1.10,2013-03-27 22:38:00,
2013-03-27 17:53:00,65.5,32.0,30.22,South,171,4.0,-999.0,29,-99.99,,,0.00,weatherlink.com 1.10,2013-03-27 22:53:00,
2013-03-27 18:08:00,65.0,32.0,30.22,East,90,2.0,-999.0,29,-99.99,,,0.00,weatherlink.com 1.10,2013-03-27 23:08:00,
2013-03-27 18:23:00,64.2,33.0,30.22,SE,138,5.0,-999.0,31,-99.99,,,0.00,weatherlink.com 1.10,2013-03-27 23:23:00,
2013-03-27 18:38:00,63.4,31.0,30.22,SE,136,2.0,-999.0,30,-99.99,,,0.00,weatherlink.com 1.10,2013-03-27 23:38:00,
2013-03-27 18:53:00,62.4,32.0,30.21,ESE,113,0.0,-999.0,32,-99.99,,,0.00,weatherlink.com 1.10,2013-03-27 23:53:00,
2013-03-27 19:08:00,61.6,31.0,30.21,ESE,120,0.0,-999.0,32,-99.99,,,0.00,weatherlink.com 1.10,2013-03-28 00:08:00,
2013-03-27 19:23:00,61.3,32.0,30.20,ESE,117,0.0,-999.0,33,-99.99,,,0.00,weatherlink.com 1.10,2013-03-28 00:23:00,
2013-03-27 19:38:00,60.5,32.0,30.20,ESE,119,0.0,-999.0,34,-99.99,,,0.00,weatherlink.com 1.10,2013-03-28 00:38:00,
2013-03-27 19:53:00,59.5,32.0,30.20,ESE,116,0.0,-999.0,36,-99.99,,,0.00,weatherlink.com 1.10,2013-03-28 00:53:00,
2013-03-27 20:08:00,58.4,33.0,30.21,SE,124,0.0,-999.0,38,-99.99,,,0.00,weatherlink.com 1.10,2013-03-28 01:08:00,
2013-03-27 20:23:00,57.2,33.0,30.21,SE,144,0.0,-999.0,40,-99.99,,,0.00,weatherlink.com 1.10,2013-03-28 01:23:00,
2013-03-27 20:38:00,56.5,33.0,30.21,SE,144,0.0,-999.0,42,-99.99,,,0.00,weatherlink.com 1.10,2013-03-28 01:38:00,
2013-03-27 20:52:00,55.6,34.0,30.22,SE,144,0.0,-999.0,44,-99.99,,,0.00,weatherlink.com 1.10,2013-03-28 01:52:00,
2013-03-27 21:08:00,54.7,34.0,30.23,SE,144,0.0,-999.0,45,-99.99,,,0.00,weatherlink.com 1.10,2013-03-28 02:08:00,
2013-03-27 21:22:00,53.8,34.0,30.23,SE,144,0.0,-999.0,47,-99.99,,,0.00,weatherlink.com 1.10,2013-03-28 02:22:00,
2013-03-27 21:37:00,52.6,33.0,30.23,SE,144,0.0,-999.0,48,-99.99,,,0.00,weatherlink.com 1.10,2013-03-28 02:37:00,
2013-03-27 21:52:00,51.4,33.0,30.25,SE,144,0.0,-999.0,50,-99.99,,,0.00,weatherlink.com 1.10,2013-03-28 02:52:00,
2013-03-27 22:07:00,50.4,34.0,30.26,SE,144,0.0,-999.0,53,-99.99,,,0.00,weatherlink.com 1.10,2013-03-28 03:07:00,
2013-03-27 22:22:00,49.4,34.0,30.26,SE,144,0.0,-999.0,56,-99.99,,,0.00,weatherlink.com 1.10,2013-03-28 03:22:00,
2013-03-27 22:37:00,48.5,34.0,30.26,SE,144,0.0,-999.0,58,-99.99,,,0.00,weatherlink.com 1.10,2013-03-28 03:37:00,
2013-03-27 22:52:00,47.6,34.0,30.27,SE,144,0.0,-999.0,60,-99.99,,,0.00,weatherlink.com 1.10,2013-03-28 03:52:00,
2013-03-27 23:07:00,46.8,35.0,30.27,SE,144,0.0,-999.0,63,-99.99,,,0.00,weatherlink.com 1.10,2013-03-28 04:07:00,
2013-03-27 23:22:00,46.2,35.0,30.27,SE,144,0.0,-999.0,65,-99.99,,,0.00,weatherlink.com 1.10,2013-03-28 04:22:00,
2013-03-27 23:37:00,46.1,35.0,30.28,SE,144,0.0,-999.0,66,-99.99,,,0.00,weatherlink.com 1.10,2013-03-28 04:37:00,
2013-03-27 23:52:00,46.2,35.0,30.28,SE,144,0.0,-999.0,66,-99.99,,,0.00,weatherlink.com 1.10,2013-03-28 04:52:00,